sensor_id;sensor_type;location;lat;lon;timestamp;pressure;altitude;pressure_sealevel;temperature;humidity
19884;BME280;10104;50.732;10.174;2023-02-11T00:01:33;99692.41;;;3.63;91.13
19884;BME280;10104;50.732;10.174;2023-02-11T00:03:56;99686.72;;;3.57;91.29
19884;BME280;10104;50.732;10.174;2023-02-11T00:06:18;99681.63;;;3.68;91.28
19884;BME280;10104;50.732;10.174;2023-02-11T00:08:39;99669.28;;;3.70;90.83
19884;BME280;10104;50.732;10.174;2023-02-11T00:11:01;99658.38;;;3.76;90.70
19884;BME280;10104;50.732;10.174;2023-02-11T00:13:23;99660.47;;;3.84;89.82
19884;BME280;10104;50.732;10.174;2023-02-11T00:15:45;99657.00;;;3.83;89.44
19884;BME280;10104;50.732;10.174;2023-02-11T00:18:06;99641.84;;;3.88;89.53
19884;BME280;10104;50.732;10.174;2023-02-11T00:20:28;99633.69;;;4.05;88.59
19884;BME280;10104;50.732;10.174;2023-02-11T00:22:49;99626.16;;;4.01;88.85
19884;BME280;10104;50.732;10.174;2023-02-11T00:25:11;99624.13;;;4.04;89.60
19884;BME280;10104;50.732;10.174;2023-02-11T00:27:32;99631.06;;;4.05;88.84
19884;BME280;10104;50.732;10.174;2023-02-11T00:29:53;99628.13;;;3.97;89.05
19884;BME280;10104;50.732;10.174;2023-02-11T00:32:15;99615.13;;;4.08;89.29
19884;BME280;10104;50.732;10.174;2023-02-11T00:34:36;99605.28;;;3.99;89.44
19884;BME280;10104;50.732;10.174;2023-02-11T00:36:58;99608.31;;;4.06;89.16
19884;BME280;10104;50.732;10.174;2023-02-11T00:39:20;99605.28;;;4.25;88.90
19884;BME280;10104;50.732;10.174;2023-02-11T00:41:41;99614.06;;;4.11;89.39
19884;BME280;10104;50.732;10.174;2023-02-11T00:44:03;99613.00;;;4.14;89.42
19884;BME280;10104;50.732;10.174;2023-02-11T00:46:24;99606.22;;;4.24;88.92
19884;BME280;10104;50.732;10.174;2023-02-11T00:48:47;99598.78;;;4.18;89.34
19884;BME280;10104;50.732;10.174;2023-02-11T00:51:08;99602.09;;;4.20;89.02
19884;BME280;10104;50.732;10.174;2023-02-11T00:53:31;99585.56;;;4.32;89.30
19884;BME280;10104;50.732;10.174;2023-02-11T00:55:52;99583.97;;;4.29;88.70
19884;BME280;10104;50.732;10.174;2023-02-11T00:58:14;99564.84;;;4.40;88.58
19884;BME280;10104;50.732;10.174;2023-02-11T01:00:35;99562.75;;;4.32;89.15
19884;BME280;10104;50.732;10.174;2023-02-11T01:02:57;99573.69;;;4.26;89.63
19884;BME280;10104;50.732;10.174;2023-02-11T01:05:19;99571.50;;;4.07;91.77
19884;BME280;10104;50.732;10.174;2023-02-11T01:07:41;99570.56;;;4.08;91.92
19884;BME280;10104;50.732;10.174;2023-02-11T01:10:03;99566.66;;;4.14;91.31
19884;BME280;10104;50.732;10.174;2023-02-11T01:12:24;99562.91;;;4.31;90.98
19884;BME280;10104;50.732;10.174;2023-02-11T01:14:46;99564.16;;;4.25;91.80
19884;BME280;10104;50.732;10.174;2023-02-11T01:17:08;99560.25;;;4.43;90.12
19884;BME280;10104;50.732;10.174;2023-02-11T01:19:29;99548.59;;;4.47;89.78
19884;BME280;10104;50.732;10.174;2023-02-11T01:21:51;99538.50;;;4.54;89.78
19884;BME280;10104;50.732;10.174;2023-02-11T01:24:12;99545.72;;;4.51;89.98
19884;BME280;10104;50.732;10.174;2023-02-11T01:26:33;99544.63;;;4.42;91.11
19884;BME280;10104;50.732;10.174;2023-02-11T01:28:55;99537.06;;;4.50;90.82
19884;BME280;10104;50.732;10.174;2023-02-11T01:31:16;99542.69;;;4.57;90.67
19884;BME280;10104;50.732;10.174;2023-02-11T01:33:38;99545.22;;;4.45;91.88
19884;BME280;10104;50.732;10.174;2023-02-11T01:36:04;99537.56;;;4.55;91.42
19884;BME280;10104;50.732;10.174;2023-02-11T01:38:26;99540.38;;;4.52;91.30
19884;BME280;10104;50.732;10.174;2023-02-11T01:40:53;99535.97;;;4.53;91.10
19884;BME280;10104;50.732;10.174;2023-02-11T01:43:14;99529.34;;;4.60;91.44
19884;BME280;10104;50.732;10.174;2023-02-11T01:48:08;99540.31;;;4.77;90.30
19884;BME280;10104;50.732;10.174;2023-02-11T01:50:31;99540.16;;;4.92;89.13
19884;BME280;10104;50.732;10.174;2023-02-11T01:52:53;99544.22;;;4.96;88.71
19884;BME280;10104;50.732;10.174;2023-02-11T01:55:34;99533.69;;;5.19;87.34
19884;BME280;10104;50.732;10.174;2023-02-11T01:58:15;99533.84;;;5.18;87.62
19884;BME280;10104;50.732;10.174;2023-02-11T02:00:37;99534.88;;;5.15;87.49
19884;BME280;10104;50.732;10.174;2023-02-11T02:03:05;99536.91;;;5.12;87.33
19884;BME280;10104;50.732;10.174;2023-02-11T02:08:10;99528.72;;;5.27;86.94
19884;BME280;10104;50.732;10.174;2023-02-11T02:10:34;99523.38;;;5.29;86.43
19884;BME280;10104;50.732;10.174;2023-02-11T02:12:58;99537.94;;;5.33;86.56
19884;BME280;10104;50.732;10.174;2023-02-11T02:15:24;99531.03;;;5.43;85.55
19884;BME280;10104;50.732;10.174;2023-02-11T02:17:55;99543.16;;;5.22;87.06
19884;BME280;10104;50.732;10.174;2023-02-11T02:28:51;99542.84;;;5.38;86.41
19884;BME280;10104;50.732;10.174;2023-02-11T02:31:38;99534.00;;;5.39;86.88
19884;BME280;10104;50.732;10.174;2023-02-11T02:34:07;99540.16;;;5.26;87.58
19884;BME280;10104;50.732;10.174;2023-02-11T02:36:41;99537.75;;;5.47;87.11
19884;BME280;10104;50.732;10.174;2023-02-11T02:39:10;99531.22;;;5.64;86.18
19884;BME280;10104;50.732;10.174;2023-02-11T02:41:36;99531.84;;;5.67;85.20
19884;BME280;10104;50.732;10.174;2023-02-11T02:43:59;99516.66;;;5.71;85.75
19884;BME280;10104;50.732;10.174;2023-02-11T02:46:28;99506.97;;;5.72;85.54
19884;BME280;10104;50.732;10.174;2023-02-11T02:48:52;99503.88;;;5.66;85.85
19884;BME280;10104;50.732;10.174;2023-02-11T02:57:24;99495.72;;;5.58;86.88
19884;BME280;10104;50.732;10.174;2023-02-11T03:02:46;99488.28;;;5.30;88.27
19884;BME280;10104;50.732;10.174;2023-02-11T03:05:17;99477.72;;;5.19;89.22
19884;BME280;10104;50.732;10.174;2023-02-11T03:07:57;99463.63;;;5.20;89.21
19884;BME280;10104;50.732;10.174;2023-02-11T03:10:29;99456.03;;;5.28;88.83
19884;BME280;10104;50.732;10.174;2023-02-11T03:12:52;99467.28;;;5.41;87.69
19884;BME280;10104;50.732;10.174;2023-02-11T03:15:16;99479.22;;;5.45;87.24
19884;BME280;10104;50.732;10.174;2023-02-11T03:17:46;99489.63;;;5.58;86.30
19884;BME280;10104;50.732;10.174;2023-02-11T03:20:10;99486.16;;;5.57;87.25
19884;BME280;10104;50.732;10.174;2023-02-11T03:22:45;99466.94;;;5.57;86.50
19884;BME280;10104;50.732;10.174;2023-02-11T03:25:08;99463.94;;;5.39;87.90
19884;BME280;10104;50.732;10.174;2023-02-11T03:27:57;99462.97;;;5.40;87.82
19884;BME280;10104;50.732;10.174;2023-02-11T03:30:33;99472.44;;;5.54;87.51
19884;BME280;10104;50.732;10.174;2023-02-11T03:33:06;99475.06;;;5.65;86.56
19884;BME280;10104;50.732;10.174;2023-02-11T03:35:40;99476.03;;;5.64;86.35
19884;BME280;10104;50.732;10.174;2023-02-11T03:38:14;99476.84;;;5.53;87.30
19884;BME280;10104;50.732;10.174;2023-02-11T03:40:40;99471.59;;;5.42;88.21
19884;BME280;10104;50.732;10.174;2023-02-11T03:43:10;99467.88;;;5.45;87.35
19884;BME280;10104;50.732;10.174;2023-02-11T03:45:35;99469.44;;;5.47;88.00
19884;BME280;10104;50.732;10.174;2023-02-11T03:48:03;99482.56;;;5.36;88.23
19884;BME280;10104;50.732;10.174;2023-02-11T03:50:26;99472.91;;;5.59;87.96
19884;BME280;10104;50.732;10.174;2023-02-11T03:52:50;99458.84;;;5.60;87.57
19884;BME280;10104;50.732;10.174;2023-02-11T03:55:15;99454.50;;;5.37;88.44
19884;BME280;10104;50.732;10.174;2023-02-11T03:57:38;99447.09;;;5.31;88.60
19884;BME280;10104;50.732;10.174;2023-02-11T03:59:59;99442.34;;;5.47;88.06
19884;BME280;10104;50.732;10.174;2023-02-11T04:02:24;99443.03;;;5.38;88.72
19884;BME280;10104;50.732;10.174;2023-02-11T04:04:47;99441.25;;;5.38;88.31
19884;BME280;10104;50.732;10.174;2023-02-11T04:07:10;99449.97;;;5.50;87.97
19884;BME280;10104;50.732;10.174;2023-02-11T04:09:32;99443.97;;;5.25;89.88
19884;BME280;10104;50.732;10.174;2023-02-11T04:11:53;99456.13;;;5.15;90.60
19884;BME280;10104;50.732;10.174;2023-02-11T04:14:15;99458.28;;;5.21;90.57
19884;BME280;10104;50.732;10.174;2023-02-11T04:16:36;99449.25;;;5.37;89.28
19884;BME280;10104;50.732;10.174;2023-02-11T04:18:58;99450.34;;;5.56;88.48
19884;BME280;10104;50.732;10.174;2023-02-11T04:21:19;99450.47;;;5.77;86.50
19884;BME280;10104;50.732;10.174;2023-02-11T04:23:40;99438.66;;;5.72;87.02
19884;BME280;10104;50.732;10.174;2023-02-11T04:26:02;99438.28;;;5.65;87.03
19884;BME280;10104;50.732;10.174;2023-02-11T04:28:24;99438.53;;;5.73;87.11
19884;BME280;10104;50.732;10.174;2023-02-11T04:30:48;99438.50;;;5.51;87.96
19884;BME280;10104;50.732;10.174;2023-02-11T04:33:11;99441.50;;;5.46;88.38
19884;BME280;10104;50.732;10.174;2023-02-11T04:35:32;99435.66;;;5.43;88.65
19884;BME280;10104;50.732;10.174;2023-02-11T04:37:53;99434.19;;;5.50;88.12
19884;BME280;10104;50.732;10.174;2023-02-11T04:40:15;99440.28;;;5.39;88.45
19884;BME280;10104;50.732;10.174;2023-02-11T04:42:37;99438.00;;;5.23;90.05
19884;BME280;10104;50.732;10.174;2023-02-11T04:44:58;99431.66;;;5.26;89.86
19884;BME280;10104;50.732;10.174;2023-02-11T04:47:19;99438.38;;;5.41;89.00
19884;BME280;10104;50.732;10.174;2023-02-11T04:49:41;99446.38;;;5.51;88.71
19884;BME280;10104;50.732;10.174;2023-02-11T04:52:02;99454.63;;;5.57;88.39
19884;BME280;10104;50.732;10.174;2023-02-11T04:54:24;99445.66;;;5.38;88.29
19884;BME280;10104;50.732;10.174;2023-02-11T04:56:45;99451.00;;;5.25;90.09
19884;BME280;10104;50.732;10.174;2023-02-11T04:59:07;99445.78;;;5.36;89.55
19884;BME280;10104;50.732;10.174;2023-02-11T05:01:29;99443.97;;;5.25;90.31
19884;BME280;10104;50.732;10.174;2023-02-11T05:03:50;99436.72;;;5.40;89.60
19884;BME280;10104;50.732;10.174;2023-02-11T05:06:12;99435.66;;;5.43;89.16
19884;BME280;10104;50.732;10.174;2023-02-11T05:08:33;99429.19;;;5.36;89.31
19884;BME280;10104;50.732;10.174;2023-02-11T05:10:55;99434.19;;;5.39;89.61
19884;BME280;10104;50.732;10.174;2023-02-11T05:13:16;99442.69;;;5.42;88.94
19884;BME280;10104;50.732;10.174;2023-02-11T05:15:38;99440.44;;;5.49;88.79
19884;BME280;10104;50.732;10.174;2023-02-11T05:17:59;99444.34;;;5.43;88.58
19884;BME280;10104;50.732;10.174;2023-02-11T05:20:21;99440.81;;;5.55;87.97
19884;BME280;10104;50.732;10.174;2023-02-11T05:22:42;99435.88;;;5.40;88.70
19884;BME280;10104;50.732;10.174;2023-02-11T05:25:04;99435.41;;;5.35;89.46
19884;BME280;10104;50.732;10.174;2023-02-11T05:27:26;99442.56;;;5.44;88.53
19884;BME280;10104;50.732;10.174;2023-02-11T05:29:47;99451.91;;;5.48;88.31
19884;BME280;10104;50.732;10.174;2023-02-11T05:32:08;99458.41;;;5.31;89.45
19884;BME280;10104;50.732;10.174;2023-02-11T05:34:30;99447.41;;;5.15;90.26
19884;BME280;10104;50.732;10.174;2023-02-11T05:36:51;99447.41;;;5.26;89.90
19884;BME280;10104;50.732;10.174;2023-02-11T05:39:13;99451.25;;;5.33;89.26
19884;BME280;10104;50.732;10.174;2023-02-11T05:41:34;99460.00;;;5.56;88.25
19884;BME280;10104;50.732;10.174;2023-02-11T05:43:56;99461.81;;;5.78;86.54
19884;BME280;10104;50.732;10.174;2023-02-11T05:46:17;99462.66;;;5.78;86.15
19884;BME280;10104;50.732;10.174;2023-02-11T05:48:39;99461.69;;;5.68;86.56
19884;BME280;10104;50.732;10.174;2023-02-11T05:51:00;99462.88;;;5.64;86.57
19884;BME280;10104;50.732;10.174;2023-02-11T05:53:22;99459.19;;;5.78;85.50
19884;BME280;10104;50.732;10.174;2023-02-11T05:55:43;99456.78;;;5.63;85.87
19884;BME280;10104;50.732;10.174;2023-02-11T05:58:06;99450.22;;;5.69;86.09
19884;BME280;10104;50.732;10.174;2023-02-11T06:00:28;99446.53;;;5.60;86.69
19884;BME280;10104;50.732;10.174;2023-02-11T06:02:49;99458.78;;;5.38;88.18
19884;BME280;10104;50.732;10.174;2023-02-11T06:05:11;99440.50;;;5.25;88.87
19884;BME280;10104;50.732;10.174;2023-02-11T06:07:32;99450.56;;;5.42;88.48
19884;BME280;10104;50.732;10.174;2023-02-11T06:09:54;99444.97;;;5.58;87.67
19884;BME280;10104;50.732;10.174;2023-02-11T06:12:15;99445.91;;;5.46;87.03
19884;BME280;10104;50.732;10.174;2023-02-11T06:14:37;99441.25;;;5.38;87.64
19884;BME280;10104;50.732;10.174;2023-02-11T06:16:59;99431.09;;;5.34;87.79
19884;BME280;10104;50.732;10.174;2023-02-11T06:19:20;99429.47;;;5.09;89.69
19884;BME280;10104;50.732;10.174;2023-02-11T06:21:42;99422.44;;;5.09;90.12
19884;BME280;10104;50.732;10.174;2023-02-11T06:24:05;99421.31;;;4.89;91.24
19884;BME280;10104;50.732;10.174;2023-02-11T06:26:26;99424.66;;;4.92;91.08
19884;BME280;10104;50.732;10.174;2023-02-11T06:28:48;99415.22;;;4.89;91.76
19884;BME280;10104;50.732;10.174;2023-02-11T06:31:09;99428.13;;;4.92;91.50
19884;BME280;10104;50.732;10.174;2023-02-11T06:33:32;99426.94;;;4.96;90.80
19884;BME280;10104;50.732;10.174;2023-02-11T06:35:54;99420.41;;;5.02;90.67
19884;BME280;10104;50.732;10.174;2023-02-11T06:38:16;99421.25;;;5.13;90.19
19884;BME280;10104;50.732;10.174;2023-02-11T06:40:37;99412.16;;;5.06;90.29
19884;BME280;10104;50.732;10.174;2023-02-11T06:42:58;99417.94;;;5.11;90.18
19884;BME280;10104;50.732;10.174;2023-02-11T06:45:20;99432.84;;;5.11;90.18
19884;BME280;10104;50.732;10.174;2023-02-11T06:47:41;99425.81;;;5.11;90.08
19884;BME280;10104;50.732;10.174;2023-02-11T06:50:04;99436.50;;;4.97;90.65
19884;BME280;10104;50.732;10.174;2023-02-11T06:52:26;99435.47;;;5.11;90.51
19884;BME280;10104;50.732;10.174;2023-02-11T06:54:47;99442.63;;;5.20;89.59
19884;BME280;10104;50.732;10.174;2023-02-11T06:57:09;99436.13;;;5.37;89.34
19884;BME280;10104;50.732;10.174;2023-02-11T06:59:30;99441.66;;;5.10;89.58
19884;BME280;10104;50.732;10.174;2023-02-11T07:01:52;99430.75;;;4.92;90.26
19884;BME280;10104;50.732;10.174;2023-02-11T07:04:13;99421.72;;;5.07;89.82
19884;BME280;10104;50.732;10.174;2023-02-11T07:06:35;99426.59;;;5.01;90.85
19884;BME280;10104;50.732;10.174;2023-02-11T07:08:57;99439.78;;;5.12;89.87
19884;BME280;10104;50.732;10.174;2023-02-11T07:11:22;99439.41;;;5.05;89.92
19884;BME280;10104;50.732;10.174;2023-02-11T07:13:46;99439.84;;;4.99;90.95
19884;BME280;10104;50.732;10.174;2023-02-11T07:16:11;99448.44;;;5.01;90.88
19884;BME280;10104;50.732;10.174;2023-02-11T07:18:33;99445.63;;;4.80;91.83
19884;BME280;10104;50.732;10.174;2023-02-11T07:20:55;99440.91;;;4.97;91.92
19884;BME280;10104;50.732;10.174;2023-02-11T07:23:16;99436.53;;;5.19;90.56
19884;BME280;10104;50.732;10.174;2023-02-11T07:25:38;99443.56;;;5.08;90.37
19884;BME280;10104;50.732;10.174;2023-02-11T07:27:59;99441.22;;;5.27;89.78
19884;BME280;10104;50.732;10.174;2023-02-11T07:30:21;99441.13;;;5.40;88.90
19884;BME280;10104;50.732;10.174;2023-02-11T07:32:42;99442.53;;;5.21;89.58
19884;BME280;10104;50.732;10.174;2023-02-11T07:35:04;99442.78;;;5.29;89.88
19884;BME280;10104;50.732;10.174;2023-02-11T07:37:25;99446.88;;;5.56;88.19
19884;BME280;10104;50.732;10.174;2023-02-11T07:39:47;99438.75;;;5.48;87.89
19884;BME280;10104;50.732;10.174;2023-02-11T07:42:08;99447.94;;;5.42;88.24
19884;BME280;10104;50.732;10.174;2023-02-11T07:44:30;99449.63;;;5.54;88.00
19884;BME280;10104;50.732;10.174;2023-02-11T07:46:53;99457.84;;;5.50;88.17
19884;BME280;10104;50.732;10.174;2023-02-11T07:49:15;99470.41;;;5.57;87.76
19884;BME280;10104;50.732;10.174;2023-02-11T07:51:36;99470.75;;;5.42;88.36
19884;BME280;10104;50.732;10.174;2023-02-11T07:53:58;99476.59;;;5.56;87.96
19884;BME280;10104;50.732;10.174;2023-02-11T07:56:20;99481.03;;;5.56;88.08
19884;BME280;10104;50.732;10.174;2023-02-11T07:58:42;99487.47;;;5.41;87.75
19884;BME280;10104;50.732;10.174;2023-02-11T08:01:06;99481.63;;;5.48;88.11
19884;BME280;10104;50.732;10.174;2023-02-11T08:03:28;99487.38;;;5.64;87.91
19884;BME280;10104;50.732;10.174;2023-02-11T08:05:50;99491.81;;;5.75;87.42
19884;BME280;10104;50.732;10.174;2023-02-11T08:08:12;99495.38;;;5.63;88.13
19884;BME280;10104;50.732;10.174;2023-02-11T08:10:33;99503.56;;;5.36;89.48
19884;BME280;10104;50.732;10.174;2023-02-11T08:12:55;99500.34;;;5.44;89.62
19884;BME280;10104;50.732;10.174;2023-02-11T08:15:16;99499.78;;;5.51;89.82
19884;BME280;10104;50.732;10.174;2023-02-11T08:17:38;99504.75;;;5.43;90.29
19884;BME280;10104;50.732;10.174;2023-02-11T08:19:59;99496.63;;;5.35;91.26
19884;BME280;10104;50.732;10.174;2023-02-11T08:22:21;99500.81;;;5.38;91.62
19884;BME280;10104;50.732;10.174;2023-02-11T08:24:42;99503.91;;;5.32;93.04
19884;BME280;10104;50.732;10.174;2023-02-11T08:27:04;99505.38;;;5.36;92.60
19884;BME280;10104;50.732;10.174;2023-02-11T08:29:25;99507.22;;;5.22;92.51
19884;BME280;10104;50.732;10.174;2023-02-11T08:31:47;99509.97;;;5.21;92.78
19884;BME280;10104;50.732;10.174;2023-02-11T08:34:09;99502.50;;;5.04;93.41
19884;BME280;10104;50.732;10.174;2023-02-11T08:36:34;99509.28;;;5.06;93.93
19884;BME280;10104;50.732;10.174;2023-02-11T08:38:57;99514.63;;;5.17;93.60
19884;BME280;10104;50.732;10.174;2023-02-11T08:41:38;99513.97;;;5.14;95.13
19884;BME280;10104;50.732;10.174;2023-02-11T08:44:00;99524.44;;;5.03;95.71
19884;BME280;10104;50.732;10.174;2023-02-11T08:46:21;99510.09;;;4.96;96.25
19884;BME280;10104;50.732;10.174;2023-02-11T08:48:43;99509.88;;;4.99;97.22
19884;BME280;10104;50.732;10.174;2023-02-11T08:51:12;99521.44;;;4.96;97.57
19884;BME280;10104;50.732;10.174;2023-02-11T08:53:34;99520.44;;;4.86;97.72
19884;BME280;10104;50.732;10.174;2023-02-11T08:55:56;99516.53;;;4.92;97.68
19884;BME280;10104;50.732;10.174;2023-02-11T08:58:18;99512.75;;;5.07;97.34
19884;BME280;10104;50.732;10.174;2023-02-11T09:00:39;99516.72;;;5.12;97.46
19884;BME280;10104;50.732;10.174;2023-02-11T09:03:01;99514.16;;;5.23;96.11
19884;BME280;10104;50.732;10.174;2023-02-11T09:05:22;99512.63;;;5.32;97.40
19884;BME280;10104;50.732;10.174;2023-02-11T09:07:44;99510.00;;;5.32;96.36
19884;BME280;10104;50.732;10.174;2023-02-11T09:10:05;99507.97;;;5.36;96.14
19884;BME280;10104;50.732;10.174;2023-02-11T09:12:27;99511.53;;;5.23;96.75
19884;BME280;10104;50.732;10.174;2023-02-11T09:14:48;99511.13;;;5.06;97.39
19884;BME280;10104;50.732;10.174;2023-02-11T09:17:10;99517.81;;;5.10;98.05
19884;BME280;10104;50.732;10.174;2023-02-11T09:19:31;99510.13;;;5.07;97.89
19884;BME280;10104;50.732;10.174;2023-02-11T09:21:53;99509.81;;;5.11;97.84
19884;BME280;10104;50.732;10.174;2023-02-11T09:24:14;99510.22;;;5.29;97.52
19884;BME280;10104;50.732;10.174;2023-02-11T09:26:36;99514.94;;;5.48;95.78
19884;BME280;10104;50.732;10.174;2023-02-11T09:28:59;99522.34;;;5.43;96.18
19884;BME280;10104;50.732;10.174;2023-02-11T09:31:23;99518.28;;;5.50;95.82
19884;BME280;10104;50.732;10.174;2023-02-11T09:33:47;99517.47;;;5.60;95.42
19884;BME280;10104;50.732;10.174;2023-02-11T09:36:09;99510.56;;;5.82;95.26
19884;BME280;10104;50.732;10.174;2023-02-11T09:38:30;99516.44;;;5.85;94.76
19884;BME280;10104;50.732;10.174;2023-02-11T09:40:52;99514.31;;;5.90;94.22
19884;BME280;10104;50.732;10.174;2023-02-11T09:43:21;99516.00;;;6.02;93.60
19884;BME280;10104;50.732;10.174;2023-02-11T09:45:42;99519.22;;;5.95;93.10
19884;BME280;10104;50.732;10.174;2023-02-11T09:48:12;99525.09;;;5.98;93.80
19884;BME280;10104;50.732;10.174;2023-02-11T09:50:38;99522.66;;;5.84;93.89
19884;BME280;10104;50.732;10.174;2023-02-11T09:53:21;99524.28;;;5.63;94.88
19884;BME280;10104;50.732;10.174;2023-02-11T09:55:46;99530.09;;;6.01;94.01
19884;BME280;10104;50.732;10.174;2023-02-11T09:58:15;99534.75;;;5.98;93.27
19884;BME280;10104;50.732;10.174;2023-02-11T10:01:52;99532.13;;;5.98;93.49
19884;BME280;10104;50.732;10.174;2023-02-11T10:14:03;99543.53;;;5.75;95.12
19884;BME280;10104;50.732;10.174;2023-02-11T10:19:10;99546.59;;;5.92;94.64
19884;BME280;10104;50.732;10.174;2023-02-11T10:21:50;99545.22;;;5.87;93.67
19884;BME280;10104;50.732;10.174;2023-02-11T10:24:19;99553.94;;;5.76;94.18
19884;BME280;10104;50.732;10.174;2023-02-11T10:26:42;99555.81;;;5.74;94.55
19884;BME280;10104;50.732;10.174;2023-02-11T10:29:12;99547.84;;;5.87;94.52
19884;BME280;10104;50.732;10.174;2023-02-11T10:31:40;99541.56;;;6.00;94.32
19884;BME280;10104;50.732;10.174;2023-02-11T10:34:05;99542.19;;;6.04;94.08
19884;BME280;10104;50.732;10.174;2023-02-11T10:36:33;99538.72;;;6.03;93.86
19884;BME280;10104;50.732;10.174;2023-02-11T10:38:58;99538.47;;;6.06;93.68
19884;BME280;10104;50.732;10.174;2023-02-11T10:41:26;99534.75;;;6.20;93.76
19884;BME280;10104;50.732;10.174;2023-02-11T10:43:49;99536.34;;;6.23;93.59
19884;BME280;10104;50.732;10.174;2023-02-11T10:46:21;99540.84;;;6.32;93.23
19884;BME280;10104;50.732;10.174;2023-02-11T10:48:49;99531.91;;;6.34;92.45
19884;BME280;10104;50.732;10.174;2023-02-11T10:51:23;99539.78;;;6.45;92.23
19884;BME280;10104;50.732;10.174;2023-02-11T10:53:49;99539.88;;;6.55;91.37
19884;BME280;10104;50.732;10.174;2023-02-11T10:56:19;99538.16;;;6.76;89.86
19884;BME280;10104;50.732;10.174;2023-02-11T10:58:57;99537.81;;;6.70;89.75
19884;BME280;10104;50.732;10.174;2023-02-11T11:01:19;99527.63;;;6.76;89.23
19884;BME280;10104;50.732;10.174;2023-02-11T11:03:49;99529.88;;;6.81;89.29
19884;BME280;10104;50.732;10.174;2023-02-11T11:06:12;99537.91;;;6.79;88.77
19884;BME280;10104;50.732;10.174;2023-02-11T11:08:41;99544.03;;;6.69;89.29
19884;BME280;10104;50.732;10.174;2023-02-11T11:11:09;99537.06;;;6.79;89.87
19884;BME280;10104;50.732;10.174;2023-02-11T11:13:39;99528.34;;;6.67;90.21
19884;BME280;10104;50.732;10.174;2023-02-11T11:18:32;99527.94;;;6.94;90.05
19884;BME280;10104;50.732;10.174;2023-02-11T11:20:57;99534.22;;;7.14;88.90
19884;BME280;10104;50.732;10.174;2023-02-11T11:23:21;99532.31;;;7.16;88.64
19884;BME280;10104;50.732;10.174;2023-02-11T11:25:59;99535.75;;;7.16;88.06
19884;BME280;10104;50.732;10.174;2023-02-11T11:28:24;99535.72;;;7.27;87.26
19884;BME280;10104;50.732;10.174;2023-02-11T11:30:46;99538.09;;;7.30;86.82
19884;BME280;10104;50.732;10.174;2023-02-11T11:33:22;99528.00;;;7.36;87.24
19884;BME280;10104;50.732;10.174;2023-02-11T11:35:54;99529.34;;;7.09;88.89
19884;BME280;10104;50.732;10.174;2023-02-11T11:38:17;99524.34;;;7.27;88.32
19884;BME280;10104;50.732;10.174;2023-02-11T11:40:38;99528.31;;;7.21;88.98
19884;BME280;10104;50.732;10.174;2023-02-11T11:45:34;99535.34;;;7.32;87.38
19884;BME280;10104;50.732;10.174;2023-02-11T11:48:18;99535.84;;;6.94;89.10
19884;BME280;10104;50.732;10.174;2023-02-11T11:50:45;99538.84;;;6.89;89.85
19884;BME280;10104;50.732;10.174;2023-02-11T11:56:36;99541.78;;;7.07;89.14
19884;BME280;10104;50.732;10.174;2023-02-11T11:58:50;99542.78;;;6.95;89.84
19884;BME280;10104;50.732;10.174;2023-02-11T12:04:22;99542.84;;;7.16;89.39
19884;BME280;10104;50.732;10.174;2023-02-11T12:09:46;99530.00;;;6.90;90.45
19884;BME280;10104;50.732;10.174;2023-02-11T12:12:16;99524.50;;;6.82;91.28
19884;BME280;10104;50.732;10.174;2023-02-11T12:22:59;99525.19;;;6.96;90.41
19884;BME280;10104;50.732;10.174;2023-02-11T12:36:08;99525.88;;;6.98;91.10
19884;BME280;10104;50.732;10.174;2023-02-11T12:38:58;99534.59;;;7.09;90.33
19884;BME280;10104;50.732;10.174;2023-02-11T12:44:51;99527.59;;;7.19;90.50
19884;BME280;10104;50.732;10.174;2023-02-11T12:50:53;99530.19;;;7.30;89.56
19884;BME280;10104;50.732;10.174;2023-02-11T12:53:21;99522.66;;;7.26;90.19
19884;BME280;10104;50.732;10.174;2023-02-11T12:55:51;99516.38;;;7.38;89.65
19884;BME280;10104;50.732;10.174;2023-02-11T12:58:20;99514.59;;;7.39;89.74
19884;BME280;10104;50.732;10.174;2023-02-11T13:01:00;99511.22;;;7.37;89.86
19884;BME280;10104;50.732;10.174;2023-02-11T13:03:30;99515.53;;;7.38;89.53
19884;BME280;10104;50.732;10.174;2023-02-11T13:06:02;99508.72;;;7.14;90.52
19884;BME280;10104;50.732;10.174;2023-02-11T13:08:34;99505.47;;;7.22;90.56
19884;BME280;10104;50.732;10.174;2023-02-11T13:11:12;99511.09;;;7.17;91.29
19884;BME280;10104;50.732;10.174;2023-02-11T13:13:59;99511.72;;;7.10;91.69
19884;BME280;10104;50.732;10.174;2023-02-11T13:16:39;99515.00;;;7.02;92.47
19884;BME280;10104;50.732;10.174;2023-02-11T13:19:05;99510.41;;;7.04;92.01
19884;BME280;10104;50.732;10.174;2023-02-11T13:24:21;99515.38;;;7.18;91.88
19884;BME280;10104;50.732;10.174;2023-02-11T13:27:03;99513.66;;;7.28;91.56
19884;BME280;10104;50.732;10.174;2023-02-11T13:32:18;99514.78;;;7.47;90.27
19884;BME280;10104;50.732;10.174;2023-02-11T13:37:04;99503.75;;;7.53;89.53
19884;BME280;10104;50.732;10.174;2023-02-11T13:39:25;99499.28;;;7.53;89.86
19884;BME280;10104;50.732;10.174;2023-02-11T13:41:47;99506.63;;;7.50;90.00
19884;BME280;10104;50.732;10.174;2023-02-11T13:44:20;99508.50;;;7.59;90.34
19884;BME280;10104;50.732;10.174;2023-02-11T13:46:48;99508.34;;;7.60;89.73
19884;BME280;10104;50.732;10.174;2023-02-11T13:49:28;99505.63;;;7.71;89.43
19884;BME280;10104;50.732;10.174;2023-02-11T13:51:51;99510.84;;;7.62;89.40
19884;BME280;10104;50.732;10.174;2023-02-11T13:54:28;99500.50;;;7.70;89.48
19884;BME280;10104;50.732;10.174;2023-02-11T14:02:19;99506.13;;;7.86;87.81
19884;BME280;10104;50.732;10.174;2023-02-11T14:10:51;99526.16;;;7.26;91.07
19884;BME280;10104;50.732;10.174;2023-02-11T14:13:18;99528.31;;;6.89;92.41
19884;BME280;10104;50.732;10.174;2023-02-11T14:15:45;99530.91;;;7.01;92.07
19884;BME280;10104;50.732;10.174;2023-02-11T14:19:10;99533.81;;;6.86;93.65
19884;BME280;10104;50.732;10.174;2023-02-11T14:21:23;99537.22;;;6.77;94.16
19884;BME280;10104;50.732;10.174;2023-02-11T14:23:51;99538.13;;;6.87;94.02